sensor_id;sensor_type;location;lat;lon;timestamp;P1;durP1;ratioP1;P2;durP2;ratioP2
38693;SDS011;24447;43.460;25.744;2023-03-09T00:10:57;6.95;;;3.03;;
38693;SDS011;24447;43.460;25.744;2023-03-09T00:13:23;3.33;;;2.03;;
38693;SDS011;24447;43.460;25.744;2023-03-09T00:15:49;7.72;;;2.67;;
38693;SDS011;24447;43.460;25.744;2023-03-09T00:18:22;7.70;;;2.75;;
38693;SDS011;24447;43.460;25.744;2023-03-09T00:20:48;10.25;;;3.03;;
38693;SDS011;24447;43.460;25.744;2023-03-09T00:23:14;5.10;;;1.90;;
38693;SDS011;24447;43.460;25.744;2023-03-09T00:25:43;5.85;;;2.65;;
38693;SDS011;24447;43.460;25.744;2023-03-09T00:28:09;5.45;;;1.92;;
38693;SDS011;24447;43.460;25.744;2023-03-09T00:30:35;3.70;;;2.10;;
38693;SDS011;24447;43.460;25.744;2023-03-09T00:33:02;4.63;;;2.92;;
38693;SDS011;24447;43.460;25.744;2023-03-09T00:35:27;5.10;;;2.67;;
38693;SDS011;24447;43.460;25.744;2023-03-09T00:37:53;5.38;;;2.55;;
38693;SDS011;24447;43.460;25.744;2023-03-09T00:40:19;2.72;;;2.10;;
38693;SDS011;24447;43.460;25.744;2023-03-09T00:42:45;2.50;;;1.70;;
38693;SDS011;24447;43.460;25.744;2023-03-09T00:45:11;3.40;;;1.88;;
38693;SDS011;24447;43.460;25.744;2023-03-09T00:47:38;11.40;;;2.10;;
38693;SDS011;24447;43.460;25.744;2023-03-09T00:50:05;5.80;;;2.38;;
38693;SDS011;24447;43.460;25.744;2023-03-09T00:52:32;3.97;;;2.28;;
38693;SDS011;24447;43.460;25.744;2023-03-09T00:54:58;11.50;;;3.03;;
38693;SDS011;24447;43.460;25.744;2023-03-09T00:57:25;4.75;;;2.33;;
38693;SDS011;24447;43.460;25.744;2023-03-09T00:59:51;5.72;;;2.20;;
38693;SDS011;24447;43.460;25.744;2023-03-09T01:02:17;4.00;;;2.00;;
38693;SDS011;24447;43.460;25.744;2023-03-09T01:04:45;7.68;;;2.60;;
38693;SDS011;24447;43.460;25.744;2023-03-09T01:07:11;3.47;;;1.98;;
38693;SDS011;24447;43.460;25.744;2023-03-09T01:09:37;6.72;;;2.20;;
38693;SDS011;24447;43.460;25.744;2023-03-09T01:12:04;4.28;;;2.17;;
38693;SDS011;24447;43.460;25.744;2023-03-09T01:14:30;6.32;;;2.45;;
38693;SDS011;24447;43.460;25.744;2023-03-09T01:16:56;5.75;;;2.17;;
38693;SDS011;24447;43.460;25.744;2023-03-09T01:19:22;5.70;;;2.38;;
38693;SDS011;24447;43.460;25.744;2023-03-09T01:21:48;6.03;;;2.22;;
38693;SDS011;24447;43.460;25.744;2023-03-09T01:24:14;9.45;;;2.70;;
38693;SDS011;24447;43.460;25.744;2023-03-09T01:26:40;5.68;;;2.45;;
38693;SDS011;24447;43.460;25.744;2023-03-09T01:29:06;4.15;;;2.08;;
38693;SDS011;24447;43.460;25.744;2023-03-09T01:31:32;7.80;;;2.10;;
38693;SDS011;24447;43.460;25.744;2023-03-09T01:33:58;4.65;;;2.40;;
38693;SDS011;24447;43.460;25.744;2023-03-09T01:36:24;5.50;;;2.25;;
38693;SDS011;24447;43.460;25.744;2023-03-09T01:38:49;6.40;;;2.33;;
38693;SDS011;24447;43.460;25.744;2023-03-09T01:41:16;7.18;;;2.85;;
38693;SDS011;24447;43.460;25.744;2023-03-09T01:43:44;4.63;;;2.75;;
38693;SDS011;24447;43.460;25.744;2023-03-09T01:54:25;4.10;;;2.30;;
38693;SDS011;24447;43.460;25.744;2023-03-09T01:56:54;7.97;;;3.50;;
38693;SDS011;24447;43.460;25.744;2023-03-09T01:59:24;8.20;;;2.67;;
38693;SDS011;24447;43.460;25.744;2023-03-09T02:01:52;10.35;;;3.60;;
38693;SDS011;24447;43.460;25.744;2023-03-09T02:04:20;5.75;;;3.00;;
38693;SDS011;24447;43.460;25.744;2023-03-09T02:06:49;12.43;;;3.60;;
38693;SDS011;24447;43.460;25.744;2023-03-09T02:09:19;5.35;;;2.20;;
38693;SDS011;24447;43.460;25.744;2023-03-09T02:12:03;7.50;;;2.17;;
38693;SDS011;24447;43.460;25.744;2023-03-09T02:14:30;5.55;;;2.75;;
38693;SDS011;24447;43.460;25.744;2023-03-09T02:16:56;6.03;;;3.20;;
38693;SDS011;24447;43.460;25.744;2023-03-09T02:22:06;5.82;;;2.47;;
38693;SDS011;24447;43.460;25.744;2023-03-09T02:24:43;6.72;;;2.47;;
38693;SDS011;24447;43.460;25.744;2023-03-09T02:27:16;5.65;;;2.90;;
38693;SDS011;24447;43.460;25.744;2023-03-09T02:29:45;5.72;;;3.38;;
38693;SDS011;24447;43.460;25.744;2023-03-09T02:32:12;8.30;;;2.50;;
38693;SDS011;24447;43.460;25.744;2023-03-09T02:34:38;5.30;;;3.40;;
38693;SDS011;24447;43.460;25.744;2023-03-09T02:37:04;9.23;;;2.22;;
38693;SDS011;24447;43.460;25.744;2023-03-09T02:39:46;11.25;;;4.13;;
38693;SDS011;24447;43.460;25.744;2023-03-09T02:42:13;3.15;;;2.38;;
38693;SDS011;24447;43.460;25.744;2023-03-09T02:44:39;10.27;;;2.33;;
38693;SDS011;24447;43.460;25.744;2023-03-09T02:47:09;5.40;;;2.53;;
38693;SDS011;24447;43.460;25.744;2023-03-09T02:49:39;5.00;;;2.63;;
38693;SDS011;24447;43.460;25.744;2023-03-09T02:52:05;5.80;;;2.78;;
38693;SDS011;24447;43.460;25.744;2023-03-09T02:54:31;7.47;;;3.10;;
38693;SDS011;24447;43.460;25.744;2023-03-09T02:56:57;6.40;;;2.90;;
38693;SDS011;24447;43.460;25.744;2023-03-09T02:59:23;6.32;;;2.88;;
38693;SDS011;24447;43.460;25.744;2023-03-09T03:01:49;7.10;;;2.97;;
38693;SDS011;24447;43.460;25.744;2023-03-09T03:04:15;5.70;;;2.85;;
38693;SDS011;24447;43.460;25.744;2023-03-09T03:06:41;7.78;;;3.30;;
38693;SDS011;24447;43.460;25.744;2023-03-09T03:09:06;8.00;;;2.53;;
38693;SDS011;24447;43.460;25.744;2023-03-09T03:11:32;8.00;;;2.78;;
38693;SDS011;24447;43.460;25.744;2023-03-09T03:13:58;8.63;;;3.00;;
38693;SDS011;24447;43.460;25.744;2023-03-09T03:16:24;8.40;;;2.92;;
38693;SDS011;24447;43.460;25.744;2023-03-09T03:18:50;6.90;;;3.30;;
38693;SDS011;24447;43.460;25.744;2023-03-09T03:21:16;5.75;;;2.25;;
38693;SDS011;24447;43.460;25.744;2023-03-09T03:23:42;6.47;;;3.00;;
38693;SDS011;24447;43.460;25.744;2023-03-09T03:26:09;4.20;;;2.38;;
38693;SDS011;24447;43.460;25.744;2023-03-09T03:28:35;7.60;;;3.13;;
38693;SDS011;24447;43.460;25.744;2023-03-09T03:31:02;8.45;;;2.83;;
38693;SDS011;24447;43.460;25.744;2023-03-09T03:33:28;6.28;;;2.85;;
38693;SDS011;24447;43.460;25.744;2023-03-09T03:35:55;4.50;;;2.63;;
38693;SDS011;24447;43.460;25.744;2023-03-09T03:38:21;5.80;;;2.70;;
38693;SDS011;24447;43.460;25.744;2023-03-09T03:40:47;8.90;;;3.55;;
38693;SDS011;24447;43.460;25.744;2023-03-09T03:43:13;20.13;;;7.57;;
38693;SDS011;24447;43.460;25.744;2023-03-09T03:45:39;6.53;;;3.08;;
38693;SDS011;24447;43.460;25.744;2023-03-09T03:48:05;5.88;;;2.50;;
38693;SDS011;24447;43.460;25.744;2023-03-09T03:50:31;5.75;;;3.20;;
38693;SDS011;24447;43.460;25.744;2023-03-09T03:52:57;7.55;;;3.33;;
38693;SDS011;24447;43.460;25.744;2023-03-09T03:55:23;9.30;;;3.05;;
38693;SDS011;24447;43.460;25.744;2023-03-09T03:57:49;10.60;;;3.08;;
38693;SDS011;24447;43.460;25.744;2023-03-09T04:00:15;5.25;;;2.92;;
38693;SDS011;24447;43.460;25.744;2023-03-09T04:02:44;15.38;;;3.78;;
38693;SDS011;24447;43.460;25.744;2023-03-09T04:05:11;9.52;;;2.95;;
38693;SDS011;24447;43.460;25.744;2023-03-09T04:07:36;4.38;;;2.80;;
38693;SDS011;24447;43.460;25.744;2023-03-09T04:10:03;10.38;;;3.30;;
38693;SDS011;24447;43.460;25.744;2023-03-09T04:12:29;7.35;;;2.92;;
38693;SDS011;24447;43.460;25.744;2023-03-09T04:14:55;5.78;;;3.10;;
38693;SDS011;24447;43.460;25.744;2023-03-09T04:17:21;9.15;;;3.05;;
38693;SDS011;24447;43.460;25.744;2023-03-09T04:19:47;7.72;;;3.03;;
38693;SDS011;24447;43.460;25.744;2023-03-09T04:22:13;8.00;;;3.00;;
38693;SDS011;24447;43.460;25.744;2023-03-09T04:24:38;7.85;;;3.00;;
38693;SDS011;24447;43.460;25.744;2023-03-09T04:27:04;7.82;;;3.17;;
38693;SDS011;24447;43.460;25.744;2023-03-09T04:29:30;5.97;;;2.90;;
38693;SDS011;24447;43.460;25.744;2023-03-09T04:31:56;8.43;;;3.28;;
38693;SDS011;24447;43.460;25.744;2023-03-09T04:34:22;12.68;;;3.58;;
38693;SDS011;24447;43.460;25.744;2023-03-09T04:36:48;8.85;;;3.45;;
38693;SDS011;24447;43.460;25.744;2023-03-09T04:39:14;7.20;;;3.60;;
38693;SDS011;24447;43.460;25.744;2023-03-09T04:41:41;11.00;;;4.00;;
38693;SDS011;24447;43.460;25.744;2023-03-09T04:44:07;12.88;;;4.45;;
38693;SDS011;24447;43.460;25.744;2023-03-09T04:46:33;7.50;;;3.30;;
38693;SDS011;24447;43.460;25.744;2023-03-09T04:48:59;5.53;;;2.85;;
38693;SDS011;24447;43.460;25.744;2023-03-09T04:51:25;7.22;;;2.88;;
38693;SDS011;24447;43.460;25.744;2023-03-09T04:53:51;12.90;;;5.72;;
38693;SDS011;24447;43.460;25.744;2023-03-09T04:56:17;8.60;;;4.05;;
38693;SDS011;24447;43.460;25.744;2023-03-09T04:58:43;21.30;;;7.13;;
38693;SDS011;24447;43.460;25.744;2023-03-09T05:01:09;26.92;;;8.32;;
38693;SDS011;24447;43.460;25.744;2023-03-09T05:03:34;32.45;;;10.40;;
38693;SDS011;24447;43.460;25.744;2023-03-09T05:06:00;26.08;;;8.65;;
38693;SDS011;24447;43.460;25.744;2023-03-09T05:08:26;32.67;;;13.52;;
38693;SDS011;24447;43.460;25.744;2023-03-09T05:10:52;38.72;;;17.38;;
38693;SDS011;24447;43.460;25.744;2023-03-09T05:13:18;47.33;;;15.30;;
38693;SDS011;24447;43.460;25.744;2023-03-09T05:15:44;35.53;;;12.02;;
38693;SDS011;24447;43.460;25.744;2023-03-09T05:18:10;20.92;;;6.45;;
38693;SDS011;24447;43.460;25.744;2023-03-09T05:20:36;30.83;;;10.07;;
38693;SDS011;24447;43.460;25.744;2023-03-09T05:23:03;30.73;;;10.57;;
38693;SDS011;24447;43.460;25.744;2023-03-09T05:25:30;30.15;;;9.73;;
38693;SDS011;24447;43.460;25.744;2023-03-09T05:27:56;23.00;;;8.68;;
38693;SDS011;24447;43.460;25.744;2023-03-09T05:30:22;24.65;;;5.72;;
38693;SDS011;24447;43.460;25.744;2023-03-09T05:32:48;11.73;;;4.72;;
38693;SDS011;24447;43.460;25.744;2023-03-09T05:35:17;10.63;;;4.25;;
38693;SDS011;24447;43.460;25.744;2023-03-09T05:37:44;14.60;;;4.18;;
38693;SDS011;24447;43.460;25.744;2023-03-09T05:40:11;9.75;;;4.20;;
38693;SDS011;24447;43.460;25.744;2023-03-09T05:42:38;20.85;;;5.22;;
38693;SDS011;24447;43.460;25.744;2023-03-09T05:45:05;11.85;;;3.13;;
38693;SDS011;24447;43.460;25.744;2023-03-09T05:47:31;9.88;;;4.20;;
38693;SDS011;24447;43.460;25.744;2023-03-09T05:49:57;13.50;;;5.32;;
38693;SDS011;24447;43.460;25.744;2023-03-09T05:52:23;35.28;;;11.50;;
38693;SDS011;24447;43.460;25.744;2023-03-09T05:54:49;19.95;;;7.78;;
38693;SDS011;24447;43.460;25.744;2023-03-09T05:57:15;22.92;;;8.57;;
38693;SDS011;24447;43.460;25.744;2023-03-09T05:59:41;18.48;;;7.65;;
38693;SDS011;24447;43.460;25.744;2023-03-09T06:02:07;23.75;;;10.68;;
38693;SDS011;24447;43.460;25.744;2023-03-09T06:04:33;26.50;;;10.43;;
38693;SDS011;24447;43.460;25.744;2023-03-09T06:06:59;24.02;;;10.10;;
38693;SDS011;24447;43.460;25.744;2023-03-09T06:09:25;18.20;;;7.65;;
38693;SDS011;24447;43.460;25.744;2023-03-09T06:11:51;12.93;;;6.03;;
38693;SDS011;24447;43.460;25.744;2023-03-09T06:14:17;22.75;;;6.50;;
38693;SDS011;24447;43.460;25.744;2023-03-09T06:16:43;22.38;;;7.90;;
38693;SDS011;24447;43.460;25.744;2023-03-09T06:19:09;20.33;;;7.47;;
38693;SDS011;24447;43.460;25.744;2023-03-09T06:21:36;14.98;;;5.78;;
38693;SDS011;24447;43.460;25.744;2023-03-09T06:24:02;17.77;;;7.22;;
38693;SDS011;24447;43.460;25.744;2023-03-09T06:26:28;18.42;;;8.10;;
38693;SDS011;24447;43.460;25.744;2023-03-09T06:28:54;29.85;;;11.88;;
38693;SDS011;24447;43.460;25.744;2023-03-09T06:31:20;32.88;;;11.95;;
38693;SDS011;24447;43.460;25.744;2023-03-09T06:33:46;36.78;;;12.00;;
38693;SDS011;24447;43.460;25.744;2023-03-09T06:36:13;28.92;;;11.02;;
38693;SDS011;24447;43.460;25.744;2023-03-09T06:38:41;28.95;;;10.23;;
38693;SDS011;24447;43.460;25.744;2023-03-09T06:41:07;26.75;;;8.93;;
38693;SDS011;24447;43.460;25.744;2023-03-09T06:43:33;38.90;;;11.00;;
38693;SDS011;24447;43.460;25.744;2023-03-09T06:45:59;25.40;;;9.55;;
38693;SDS011;24447;43.460;25.744;2023-03-09T06:48:25;29.45;;;10.98;;
38693;SDS011;24447;43.460;25.744;2023-03-09T06:50:51;38.30;;;15.27;;
38693;SDS011;24447;43.460;25.744;2023-03-09T06:53:17;25.83;;;12.23;;
38693;SDS011;24447;43.460;25.744;2023-03-09T06:55:43;29.75;;;12.90;;
38693;SDS011;24447;43.460;25.744;2023-03-09T06:58:09;31.23;;;12.80;;
38693;SDS011;24447;43.460;25.744;2023-03-09T07:00:35;27.10;;;10.20;;
38693;SDS011;24447;43.460;25.744;2023-03-09T07:03:06;27.23;;;9.88;;
38693;SDS011;24447;43.460;25.744;2023-03-09T07:05:35;20.55;;;8.75;;
38693;SDS011;24447;43.460;25.744;2023-03-09T07:08:01;26.50;;;9.35;;
38693;SDS011;24447;43.460;25.744;2023-03-09T07:10:27;29.17;;;10.40;;
38693;SDS011;24447;43.460;25.744;2023-03-09T07:12:53;32.38;;;11.38;;
38693;SDS011;24447;43.460;25.744;2023-03-09T07:15:19;21.60;;;9.45;;
38693;SDS011;24447;43.460;25.744;2023-03-09T07:17:45;20.05;;;7.00;;
38693;SDS011;24447;43.460;25.744;2023-03-09T07:20:11;19.88;;;7.72;;
38693;SDS011;24447;43.460;25.744;2023-03-09T07:22:37;17.95;;;7.30;;
38693;SDS011;24447;43.460;25.744;2023-03-09T07:25:04;19.02;;;8.38;;
38693;SDS011;24447;43.460;25.744;2023-03-09T07:27:30;14.20;;;5.35;;
38693;SDS011;24447;43.460;25.744;2023-03-09T07:29:56;9.55;;;5.55;;
38693;SDS011;24447;43.460;25.744;2023-03-09T07:32:23;13.40;;;5.50;;
38693;SDS011;24447;43.460;25.744;2023-03-09T07:34:49;8.82;;;3.95;;
38693;SDS011;24447;43.460;25.744;2023-03-09T07:37:15;11.88;;;4.80;;
38693;SDS011;24447;43.460;25.744;2023-03-09T07:39:42;17.50;;;6.82;;
38693;SDS011;24447;43.460;25.744;2023-03-09T07:42:08;13.90;;;5.25;;
38693;SDS011;24447;43.460;25.744;2023-03-09T07:44:34;14.35;;;5.25;;
38693;SDS011;24447;43.460;25.744;2023-03-09T07:46:59;12.10;;;4.32;;
38693;SDS011;24447;43.460;25.744;2023-03-09T07:49:25;9.43;;;4.45;;
38693;SDS011;24447;43.460;25.744;2023-03-09T07:51:51;12.07;;;4.95;;
38693;SDS011;24447;43.460;25.744;2023-03-09T07:54:17;10.85;;;4.90;;
38693;SDS011;24447;43.460;25.744;2023-03-09T07:56:43;12.63;;;4.95;;
38693;SDS011;24447;43.460;25.744;2023-03-09T07:59:15;10.57;;;4.50;;
38693;SDS011;24447;43.460;25.744;2023-03-09T08:01:41;13.98;;;4.47;;
38693;SDS011;24447;43.460;25.744;2023-03-09T08:04:07;9.50;;;4.38;;
38693;SDS011;24447;43.460;25.744;2023-03-09T08:06:33;14.07;;;4.20;;
38693;SDS011;24447;43.460;25.744;2023-03-09T08:08:59;20.33;;;4.07;;
38693;SDS011;24447;43.460;25.744;2023-03-09T08:11:25;10.30;;;3.92;;
38693;SDS011;24447;43.460;25.744;2023-03-09T08:13:51;11.60;;;4.15;;
38693;SDS011;24447;43.460;25.744;2023-03-09T08:16:16;11.95;;;4.22;;
38693;SDS011;24447;43.460;25.744;2023-03-09T08:18:42;4.13;;;2.22;;
38693;SDS011;24447;43.460;25.744;2023-03-09T08:21:11;1.95;;;1.70;;
38693;SDS011;24447;43.460;25.744;2023-03-09T08:23:38;5.82;;;2.08;;
38693;SDS011;24447;43.460;25.744;2023-03-09T08:28:38;3.78;;;1.60;;
38693;SDS011;24447;43.460;25.744;2023-03-09T08:31:05;1.77;;;1.50;;
38693;SDS011;24447;43.460;25.744;2023-03-09T08:33:31;8.85;;;1.98;;
38693;SDS011;24447;43.460;25.744;2023-03-09T08:35:57;5.47;;;2.10;;
38693;SDS011;24447;43.460;25.744;2023-03-09T08:38:23;4.38;;;2.05;;
38693;SDS011;24447;43.460;25.744;2023-03-09T08:40:49;2.05;;;1.52;;
38693;SDS011;24447;43.460;25.744;2023-03-09T08:43:15;4.90;;;2.08;;
38693;SDS011;24447;43.460;25.744;2023-03-09T08:45:41;1.65;;;1.30;;
38693;SDS011;24447;43.460;25.744;2023-03-09T08:48:07;2.95;;;1.45;;
38693;SDS011;24447;43.460;25.744;2023-03-09T08:50:33;1.38;;;1.08;;
38693;SDS011;24447;43.460;25.744;2023-03-09T08:52:59;2.97;;;1.52;;
38693;SDS011;24447;43.460;25.744;2023-03-09T08:55:25;6.30;;;1.80;;
38693;SDS011;24447;43.460;25.744;2023-03-09T08:57:51;11.35;;;3.28;;
38693;SDS011;24447;43.460;25.744;2023-03-09T09:00:17;18.13;;;3.00;;
38693;SDS011;24447;43.460;25.744;2023-03-09T09:02:43;4.93;;;2.00;;
38693;SDS011;24447;43.460;25.744;2023-03-09T09:05:09;4.15;;;2.15;;
38693;SDS011;24447;43.460;25.744;2023-03-09T09:07:35;5.68;;;2.10;;
38693;SDS011;24447;43.460;25.744;2023-03-09T09:10:01;2.05;;;1.85;;
38693;SDS011;24447;43.460;25.744;2023-03-09T09:12:27;1.90;;;1.50;;
38693;SDS011;24447;43.460;25.744;2023-03-09T09:14:57;3.53;;;2.00;;
38693;SDS011;24447;43.460;25.744;2023-03-09T09:17:23;3.20;;;1.83;;
38693;SDS011;24447;43.460;25.744;2023-03-09T09:19:48;2.83;;;1.48;;
38693;SDS011;24447;43.460;25.744;2023-03-09T09:22:16;3.10;;;1.90;;
38693;SDS011;24447;43.460;25.744;2023-03-09T09:24:43;3.85;;;1.58;;
38693;SDS011;24447;43.460;25.744;2023-03-09T09:27:09;8.32;;;1.98;;
38693;SDS011;24447;43.460;25.744;2023-03-09T09:29:35;3.85;;;2.10;;
38693;SDS011;24447;43.460;25.744;2023-03-09T09:32:02;4.10;;;2.70;;
38693;SDS011;24447;43.460;25.744;2023-03-09T09:34:29;6.65;;;3.25;;
38693;SDS011;24447;43.460;25.744;2023-03-09T09:36:59;5.38;;;2.72;;
38693;SDS011;24447;43.460;25.744;2023-03-09T09:39:26;6.40;;;1.70;;
38693;SDS011;24447;43.460;25.744;2023-03-09T09:41:54;4.80;;;1.85;;
38693;SDS011;24447;43.460;25.744;2023-03-09T09:44:25;4.68;;;1.67;;
38693;SDS011;24447;43.460;25.744;2023-03-09T09:46:54;4.15;;;2.33;;
38693;SDS011;24447;43.460;25.744;2023-03-09T09:49:23;3.67;;;2.20;;
38693;SDS011;24447;43.460;25.744;2023-03-09T09:57:22;4.47;;;1.77;;
38693;SDS011;24447;43.460;25.744;2023-03-09T10:00:06;8.73;;;2.85;;
38693;SDS011;24447;43.460;25.744;2023-03-09T10:07:58;6.10;;;2.30;;
38693;SDS011;24447;43.460;25.744;2023-03-09T10:10:34;4.15;;;2.13;;
38693;SDS011;24447;43.460;25.744;2023-03-09T10:13:00;6.22;;;1.88;;
38693;SDS011;24447;43.460;25.744;2023-03-09T10:15:29;4.20;;;1.83;;
38693;SDS011;24447;43.460;25.744;2023-03-09T10:17:57;5.57;;;1.85;;
38693;SDS011;24447;43.460;25.744;2023-03-09T10:20:38;10.00;;;3.08;;
38693;SDS011;24447;43.460;25.744;2023-03-09T10:23:15;3.45;;;1.80;;
38693;SDS011;24447;43.460;25.744;2023-03-09T10:25:43;5.57;;;2.47;;
38693;SDS011;24447;43.460;25.744;2023-03-09T10:28:18;18.52;;;5.50;;
38693;SDS011;24447;43.460;25.744;2023-03-09T10:30:49;8.00;;;2.53;;
38693;SDS011;24447;43.460;25.744;2023-03-09T10:33:27;5.63;;;2.80;;
38693;SDS011;24447;43.460;25.744;2023-03-09T10:36:06;13.27;;;3.92;;
38693;SDS011;24447;43.460;25.744;2023-03-09T10:38:33;7.50;;;3.05;;
38693;SDS011;24447;43.460;25.744;2023-03-09T10:41:00;12.60;;;2.50;;
38693;SDS011;24447;43.460;25.744;2023-03-09T10:43:27;4.07;;;1.90;;
38693;SDS011;24447;43.460;25.744;2023-03-09T10:46:09;2.20;;;1.67;;
38693;SDS011;24447;43.460;25.744;2023-03-09T10:48:41;3.75;;;1.75;;
38693;SDS011;24447;43.460;25.744;2023-03-09T10:57:21;3.30;;;1.42;;
38693;SDS011;24447;43.460;25.744;2023-03-09T11:00:01;7.53;;;2.80;;
38693;SDS011;24447;43.460;25.744;2023-03-09T11:02:39;3.78;;;1.05;;
38693;SDS011;24447;43.460;25.744;2023-03-09T11:05:24;1.33;;;1.00;;
38693;SDS011;24447;43.460;25.744;2023-03-09T11:07:55;2.08;;;1.05;;
38693;SDS011;24447;43.460;25.744;2023-03-09T11:10:26;2.20;;;1.25;;
38693;SDS011;24447;43.460;25.744;2023-03-09T11:12:54;2.53;;;1.60;;
38693;SDS011;24447;43.460;25.744;2023-03-09T11:15:31;3.05;;;2.08;;
38693;SDS011;24447;43.460;25.744;2023-03-09T11:18:03;16.55;;;2.83;;
38693;SDS011;24447;43.460;25.744;2023-03-09T11:20:35;5.57;;;1.63;;
38693;SDS011;24447;43.460;25.744;2023-03-09T11:23:20;3.40;;;1.83;;
38693;SDS011;24447;43.460;25.744;2023-03-09T11:31:36;3.20;;;1.73;;
38693;SDS011;24447;43.460;25.744;2023-03-09T11:34:10;3.45;;;1.35;;
38693;SDS011;24447;43.460;25.744;2023-03-09T11:36:54;1.63;;;1.08;;
38693;SDS011;24447;43.460;25.744;2023-03-09T11:39:31;4.43;;;1.33;;
38693;SDS011;24447;43.460;25.744;2023-03-09T11:41:59;2.80;;;1.27;;
38693;SDS011;24447;43.460;25.744;2023-03-09T11:47:05;1.40;;;1.15;;
38693;SDS011;24447;43.460;25.744;2023-03-09T11:49:55;5.80;;;1.95;;
38693;SDS011;24447;43.460;25.744;2023-03-09T11:52:34;5.20;;;2.13;;
38693;SDS011;24447;43.460;25.744;2023-03-09T11:55:04;5.20;;;2.55;;
38693;SDS011;24447;43.460;25.744;2023-03-09T11:57:33;5.68;;;1.95;;
38693;SDS011;24447;43.460;25.744;2023-03-09T12:00:06;5.93;;;2.08;;
38693;SDS011;24447;43.460;25.744;2023-03-09T12:05:33;5.70;;;2.63;;
38693;SDS011;24447;43.460;25.744;2023-03-09T12:10:51;1.38;;;0.90;;
38693;SDS011;24447;43.460;25.744;2023-03-09T12:21:31;5.57;;;1.27;;
38693;SDS011;24447;43.460;25.744;2023-03-09T12:23:58;7.18;;;2.22;;
38693;SDS011;24447;43.460;25.744;2023-03-09T12:26:32;2.45;;;1.45;;
38693;SDS011;24447;43.460;25.744;2023-03-09T12:31:45;1.98;;;1.55;;
38693;SDS011;24447;43.460;25.744;2023-03-09T12:34:41;3.50;;;1.73;;
38693;SDS011;24447;43.460;25.744;2023-03-09T12:39:59;19.77;;;4.03;;
38693;SDS011;24447;43.460;25.744;2023-03-09T12:42:47;8.45;;;1.75;;
38693;SDS011;24447;43.460;25.744;2023-03-09T13:09:01;3.30;;;1.75;;
38693;SDS011;24447;43.460;25.744;2023-03-09T13:14:15;2.88;;;1.27;;
38693;SDS011;24447;43.460;25.744;2023-03-09T13:16:54;3.75;;;1.77;;
38693;SDS011;24447;43.460;25.744;2023-03-09T13:26:53;19.42;;;3.90;;
38693;SDS011;24447;43.460;25.744;2023-03-09T13:29:22;14.95;;;3.03;;
38693;SDS011;24447;43.460;25.744;2023-03-09T13:31:50;7.63;;;3.13;;
38693;SDS011;24447;43.460;25.744;2023-03-09T13:34:17;14.27;;;2.67;;
38693;SDS011;24447;43.460;25.744;2023-03-09T13:36:44;6.05;;;2.25;;
38693;SDS011;24447;43.460;25.744;2023-03-09T13:39:17;11.35;;;2.30;;
38693;SDS011;24447;43.460;25.744;2023-03-09T13:41:45;3.75;;;1.42;;
38693;SDS011;24447;43.460;25.744;2023-03-09T13:44:15;14.90;;;2.25;;
38693;SDS011;24447;43.460;25.744;2023-03-09T13:46:51;61.63;;;7.63;;
38693;SDS011;24447;43.460;25.744;2023-03-09T13:51:55;27.73;;;5.30;;
38693;SDS011;24447;43.460;25.744;2023-03-09T13:54:24;41.13;;;10.35;;
38693;SDS011;24447;43.460;25.744;2023-03-09T13:59:37;130.35;;;53.53;;
38693;SDS011;24447;43.460;25.744;2023-03-09T14:02:11;148.40;;;51.72;;
38693;SDS011;24447;43.460;25.744;2023-03-09T14:04:51;74.18;;;12.40;;
38693;SDS011;24447;43.460;25.744;2023-03-09T14:07:32;32.90;;;9.15;;
38693;SDS011;24447;43.460;25.744;2023-03-09T14:10:03;60.78;;;29.67;;
38693;SDS011;24447;43.460;25.744;2023-03-09T14:12:39;48.17;;;22.40;;
38693;SDS011;24447;43.460;25.744;2023-03-09T14:15:05;39.63;;;9.43;;
38693;SDS011;24447;43.460;25.744;2023-03-09T14:17:39;32.03;;;6.53;;
38693;SDS011;24447;43.460;25.744;2023-03-09T14:20:06;43.10;;;18.13;;
38693;SDS011;24447;43.460;25.744;2023-03-09T14:22:38;54.15;;;14.77;;
38693;SDS011;24447;43.460;25.744;2023-03-09T14:25:19;64.55;;;32.10;;
38693;SDS011;24447;43.460;25.744;2023-03-09T14:27:55;61.88;;;22.50;;
38693;SDS011;24447;43.460;25.744;2023-03-09T14:30:35;30.10;;;6.93;;
38693;SDS011;24447;43.460;25.744;2023-03-09T14:36:20;43.60;;;15.35;;
38693;SDS011;24447;43.460;25.744;2023-03-09T14:38:54;29.58;;;11.55;;
38693;SDS011;24447;43.460;25.744;2023-03-09T14:41:25;70.63;;;11.77;;
38693;SDS011;24447;43.460;25.744;2023-03-09T14:43:53;43.83;;;18.02;;
38693;SDS011;24447;43.460;25.744;2023-03-09T14:48:59;18.15;;;6.38;;
38693;SDS011;24447;43.460;25.744;2023-03-09T14:51:30;13.77;;;6.63;;
38693;SDS011;24447;43.460;25.744;2023-03-09T14:54:01;35.70;;;6.97;;
38693;SDS011;24447;43.460;25.744;2023-03-09T14:56:28;57.08;;;25.30;;
38693;SDS011;24447;43.460;25.744;2023-03-09T14:58:56;66.25;;;28.55;;
38693;SDS011;24447;43.460;25.744;2023-03-09T15:01:26;45.15;;;15.20;;
38693;SDS011;24447;43.460;25.744;2023-03-09T15:03:54;66.57;;;20.77;;
38693;SDS011;24447;43.460;25.744;2023-03-09T15:06:20;95.88;;;23.80;;
38693;SDS011;24447;43.460;25.744;2023-03-09T15:08:47;56.30;;;20.88;;
38693;SDS011;24447;43.460;25.744;2023-03-09T15:11:13;93.40;;;34.75;;
38693;SDS011;24447;43.460;25.744;2023-03-09T15:13:39;42.15;;;19.75;;
38693;SDS011;24447;43.460;25.744;2023-03-09T15:16:05;24.88;;;10.88;;
38693;SDS011;24447;43.460;25.744;2023-03-09T15:18:31;28.90;;;11.68;;
38693;SDS011;24447;43.460;25.744;2023-03-09T15:20:57;27.70;;;8.40;;
38693;SDS011;24447;43.460;25.744;2023-03-09T15:23:23;22.45;;;8.32;;
38693;SDS011;24447;43.460;25.744;2023-03-09T15:25:49;21.13;;;6.97;;
38693;SDS011;24447;43.460;25.744;2023-03-09T15:28:15;20.73;;;6.75;;
38693;SDS011;24447;43.460;25.744;2023-03-09T15:30:41;16.95;;;6.55;;
38693;SDS011;24447;43.460;25.744;2023-03-09T15:33:06;17.13;;;6.40;;
38693;SDS011;24447;43.460;25.744;2023-03-09T15:35:33;19.40;;;6.53;;
38693;SDS011;24447;43.460;25.744;2023-03-09T15:37:58;14.32;;;4.85;;
38693;SDS011;24447;43.460;25.744;2023-03-09T15:40:24;14.50;;;5.00;;
38693;SDS011;24447;43.460;25.744;2023-03-09T15:42:50;13.93;;;5.57;;
38693;SDS011;24447;43.460;25.744;2023-03-09T15:45:17;49.95;;;17.92;;
38693;SDS011;24447;43.460;25.744;2023-03-09T15:47:43;24.98;;;8.73;;
38693;SDS011;24447;43.460;25.744;2023-03-09T15:50:10;49.15;;;18.83;;
38693;SDS011;24447;43.460;25.744;2023-03-09T15:52:37;22.98;;;8.15;;
38693;SDS011;24447;43.460;25.744;2023-03-09T15:55:03;20.48;;;6.78;;
38693;SDS011;24447;43.460;25.744;2023-03-09T15:57:30;14.40;;;5.38;;
38693;SDS011;24447;43.460;25.744;2023-03-09T15:59:56;22.10;;;6.72;;
38693;SDS011;24447;43.460;25.744;2023-03-09T16:02:23;22.02;;;7.20;;
38693;SDS011;24447;43.460;25.744;2023-03-09T16:04:49;21.17;;;6.60;;
38693;SDS011;24447;43.460;25.744;2023-03-09T16:07:18;37.35;;;9.77;;
38693;SDS011;24447;43.460;25.744;2023-03-09T16:09:43;33.65;;;12.27;;
38693;SDS011;24447;43.460;25.744;2023-03-09T16:12:10;37.05;;;14.18;;
38693;SDS011;24447;43.460;25.744;2023-03-09T16:14:36;31.20;;;8.13;;
38693;SDS011;24447;43.460;25.744;2023-03-09T16:17:02;29.33;;;8.60;;
38693;SDS011;24447;43.460;25.744;2023-03-09T16:19:28;28.13;;;9.70;;
38693;SDS011;24447;43.460;25.744;2023-03-09T16:21:55;24.85;;;8.48;;
38693;SDS011;24447;43.460;25.744;2023-03-09T16:24:21;18.75;;;5.88;;